sensor_id;sensor_type;location;lat;lon;timestamp;pressure;altitude;pressure_sealevel;temperature;humidity
75247;BME280;63844;50.042;19.224;2023-04-19T00:00:05;99245.80;;;9.66;89.45
75247;BME280;63844;50.042;19.224;2023-04-19T00:02:54;99242.90;;;9.66;89.84
75247;BME280;63844;50.042;19.224;2023-04-19T00:05:21;99236.41;;;9.66;89.49
75247;BME280;63844;50.042;19.224;2023-04-19T00:07:49;99237.68;;;9.62;90.34
75247;BME280;63844;50.042;19.224;2023-04-19T00:10:16;99236.39;;;9.60;89.73
75247;BME280;63844;50.042;19.224;2023-04-19T00:12:42;99234.19;;;9.59;90.49
75247;BME280;63844;50.042;19.224;2023-04-19T00:15:09;99232.10;;;9.55;90.22
75247;BME280;63844;50.042;19.224;2023-04-19T00:17:35;99230.72;;;9.54;90.73
75247;BME280;63844;50.042;19.224;2023-04-19T00:20:03;99226.20;;;9.53;90.95
75247;BME280;63844;50.042;19.224;2023-04-19T00:22:31;99222.61;;;9.57;90.32
75247;BME280;63844;50.042;19.224;2023-04-19T00:24:57;99224.75;;;9.59;90.28
75247;BME280;63844;50.042;19.224;2023-04-19T00:27:24;99220.97;;;9.61;90.39
75247;BME280;63844;50.042;19.224;2023-04-19T00:29:50;99215.05;;;9.56;90.32
75247;BME280;63844;50.042;19.224;2023-04-19T00:32:17;99212.71;;;9.57;91.13
75247;BME280;63844;50.042;19.224;2023-04-19T00:34:43;99211.40;;;9.58;89.28
75247;BME280;63844;50.042;19.224;2023-04-19T00:37:10;99208.63;;;9.60;90.96
75247;BME280;63844;50.042;19.224;2023-04-19T00:39:36;99204.84;;;9.62;91.69
75247;BME280;63844;50.042;19.224;2023-04-19T00:42:02;99200.23;;;9.62;91.98
75247;BME280;63844;50.042;19.224;2023-04-19T00:44:29;99201.85;;;9.64;90.45
75247;BME280;63844;50.042;19.224;2023-04-19T00:46:56;99194.05;;;9.65;91.25
75247;BME280;63844;50.042;19.224;2023-04-19T00:49:22;99197.34;;;9.63;90.63
75247;BME280;63844;50.042;19.224;2023-04-19T00:51:50;99194.64;;;9.64;90.59
75247;BME280;63844;50.042;19.224;2023-04-19T00:54:17;99193.09;;;9.63;91.23
75247;BME280;63844;50.042;19.224;2023-04-19T00:56:45;99190.11;;;9.63;90.26
75247;BME280;63844;50.042;19.224;2023-04-19T00:59:13;99187.55;;;9.64;91.16
75247;BME280;63844;50.042;19.224;2023-04-19T01:01:40;99188.40;;;9.65;90.72
75247;BME280;63844;50.042;19.224;2023-04-19T01:04:07;99186.27;;;9.68;90.55
75247;BME280;63844;50.042;19.224;2023-04-19T01:06:35;99182.02;;;9.68;90.97
75247;BME280;63844;50.042;19.224;2023-04-19T01:09:01;99178.69;;;9.68;90.93
75247;BME280;63844;50.042;19.224;2023-04-19T01:11:28;99176.73;;;9.68;90.21
75247;BME280;63844;50.042;19.224;2023-04-19T01:13:55;99172.67;;;9.67;90.89
75247;BME280;63844;50.042;19.224;2023-04-19T01:16:21;99168.54;;;9.66;92.08
75247;BME280;63844;50.042;19.224;2023-04-19T01:18:48;99165.52;;;9.63;90.55
75247;BME280;63844;50.042;19.224;2023-04-19T01:21:14;99164.63;;;9.60;91.38
75247;BME280;63844;50.042;19.224;2023-04-19T01:23:42;99165.50;;;9.61;91.85
75247;BME280;63844;50.042;19.224;2023-04-19T01:26:08;99160.83;;;9.62;92.05
75247;BME280;63844;50.042;19.224;2023-04-19T01:28:35;99158.13;;;9.63;91.76
75247;BME280;63844;50.042;19.224;2023-04-19T01:31:02;99157.96;;;9.63;91.64
75247;BME280;63844;50.042;19.224;2023-04-19T01:33:29;99153.03;;;9.65;90.96
75247;BME280;63844;50.042;19.224;2023-04-19T01:35:55;99151.43;;;9.65;90.78
75247;BME280;63844;50.042;19.224;2023-04-19T01:38:21;99147.05;;;9.65;90.55
75247;BME280;63844;50.042;19.224;2023-04-19T01:40:48;99146.45;;;9.63;90.78
75247;BME280;63844;50.042;19.224;2023-04-19T01:43:16;99142.73;;;9.60;91.55
75247;BME280;63844;50.042;19.224;2023-04-19T01:45:42;99140.44;;;9.57;91.75
75247;BME280;63844;50.042;19.224;2023-04-19T01:48:09;99138.80;;;9.55;91.57
75247;BME280;63844;50.042;19.224;2023-04-19T01:50:35;99141.27;;;9.55;91.02
75247;BME280;63844;50.042;19.224;2023-04-19T01:53:02;99137.22;;;9.55;91.01
75247;BME280;63844;50.042;19.224;2023-04-19T01:55:28;99139.37;;;9.51;90.65
75247;BME280;63844;50.042;19.224;2023-04-19T01:57:55;99133.29;;;9.44;91.43
75247;BME280;63844;50.042;19.224;2023-04-19T02:00:21;99130.56;;;9.39;91.95
75247;BME280;63844;50.042;19.224;2023-04-19T02:02:48;99125.71;;;9.37;91.63
75247;BME280;63844;50.042;19.224;2023-04-19T02:05:14;99120.00;;;9.35;91.28
75247;BME280;63844;50.042;19.224;2023-04-19T02:07:41;99111.55;;;9.35;91.18
75247;BME280;63844;50.042;19.224;2023-04-19T02:10:10;99103.85;;;9.37;90.37
75247;BME280;63844;50.042;19.224;2023-04-19T02:12:37;99101.09;;;9.38;88.83
75247;BME280;63844;50.042;19.224;2023-04-19T02:15:04;99100.27;;;9.37;89.41
75247;BME280;63844;50.042;19.224;2023-04-19T02:17:31;99101.06;;;9.33;90.18
75247;BME280;63844;50.042;19.224;2023-04-19T02:19:57;99095.98;;;9.33;90.06
75247;BME280;63844;50.042;19.224;2023-04-19T02:22:24;99096.46;;;9.33;89.96
75247;BME280;63844;50.042;19.224;2023-04-19T02:24:50;99092.08;;;9.33;90.59
75247;BME280;63844;50.042;19.224;2023-04-19T02:27:17;99095.45;;;9.32;90.28
75247;BME280;63844;50.042;19.224;2023-04-19T02:29:43;99093.17;;;9.32;89.98
75247;BME280;63844;50.042;19.224;2023-04-19T02:32:13;99092.52;;;9.28;89.49
75247;BME280;63844;50.042;19.224;2023-04-19T02:34:40;99095.77;;;9.24;90.29
75247;BME280;63844;50.042;19.224;2023-04-19T02:37:06;99095.77;;;9.21;89.38
75247;BME280;63844;50.042;19.224;2023-04-19T02:39:32;99097.91;;;9.17;89.33
75247;BME280;63844;50.042;19.224;2023-04-19T02:41:59;99097.84;;;9.13;90.16
75247;BME280;63844;50.042;19.224;2023-04-19T02:44:26;99096.63;;;9.09;89.38
75247;BME280;63844;50.042;19.224;2023-04-19T02:46:53;99088.63;;;9.07;89.69
75247;BME280;63844;50.042;19.224;2023-04-19T02:49:20;99085.86;;;9.03;89.65
75247;BME280;63844;50.042;19.224;2023-04-19T02:51:46;99082.88;;;9.00;89.67
75247;BME280;63844;50.042;19.224;2023-04-19T02:54:13;99075.83;;;8.99;89.45
75247;BME280;63844;50.042;19.224;2023-04-19T02:56:39;99072.33;;;8.96;89.86
75247;BME280;63844;50.042;19.224;2023-04-19T02:59:06;99071.04;;;8.97;89.54
75247;BME280;63844;50.042;19.224;2023-04-19T03:01:32;99064.05;;;8.96;89.57
75247;BME280;63844;50.042;19.224;2023-04-19T03:03:58;99067.16;;;8.94;88.49
75247;BME280;63844;50.042;19.224;2023-04-19T03:06:25;99070.14;;;8.88;89.49
75247;BME280;63844;50.042;19.224;2023-04-19T03:08:51;99070.33;;;8.82;89.23
75247;BME280;63844;50.042;19.224;2023-04-19T03:11:18;99064.83;;;8.76;90.38
75247;BME280;63844;50.042;19.224;2023-04-19T03:13:44;99064.36;;;8.72;90.14
75247;BME280;63844;50.042;19.224;2023-04-19T03:16:11;99065.07;;;8.69;90.12
75247;BME280;63844;50.042;19.224;2023-04-19T03:18:37;99062.20;;;8.63;90.50
75247;BME280;63844;50.042;19.224;2023-04-19T03:21:04;99057.19;;;8.56;91.13
75247;BME280;63844;50.042;19.224;2023-04-19T03:23:30;99059.42;;;8.53;91.30
75247;BME280;63844;50.042;19.224;2023-04-19T03:25:57;99053.77;;;8.53;90.72
75247;BME280;63844;50.042;19.224;2023-04-19T03:28:23;99047.92;;;8.48;90.47
75247;BME280;63844;50.042;19.224;2023-04-19T03:30:50;99042.59;;;8.45;90.78
75247;BME280;63844;50.042;19.224;2023-04-19T03:33:16;99041.82;;;8.44;90.24
75247;BME280;63844;50.042;19.224;2023-04-19T03:35:43;99038.73;;;8.45;89.82
75247;BME280;63844;50.042;19.224;2023-04-19T03:38:10;99036.58;;;8.45;90.33
75247;BME280;63844;50.042;19.224;2023-04-19T03:40:36;99027.47;;;8.48;90.39
75247;BME280;63844;50.042;19.224;2023-04-19T03:43:03;99023.77;;;8.51;89.79
75247;BME280;63844;50.042;19.224;2023-04-19T03:45:30;99021.13;;;8.53;89.53
75247;BME280;63844;50.042;19.224;2023-04-19T03:47:56;99015.65;;;8.54;89.28
75247;BME280;63844;50.042;19.224;2023-04-19T03:50:23;99008.30;;;8.53;90.08
75247;BME280;63844;50.042;19.224;2023-04-19T03:52:49;98998.22;;;8.53;89.96
75247;BME280;63844;50.042;19.224;2023-04-19T03:55:16;98989.85;;;8.51;90.04
75247;BME280;63844;50.042;19.224;2023-04-19T03:57:42;98991.95;;;8.52;90.23
75247;BME280;63844;50.042;19.224;2023-04-19T04:00:09;98997.81;;;8.54;90.42
75247;BME280;63844;50.042;19.224;2023-04-19T04:02:37;99002.80;;;8.53;89.27
75247;BME280;63844;50.042;19.224;2023-04-19T04:05:05;99013.38;;;8.53;88.88
75247;BME280;63844;50.042;19.224;2023-04-19T04:07:31;99010.83;;;8.49;89.60
75247;BME280;63844;50.042;19.224;2023-04-19T04:09:58;99017.51;;;8.46;89.81
75247;BME280;63844;50.042;19.224;2023-04-19T04:12:24;99018.11;;;8.38;90.34
75247;BME280;63844;50.042;19.224;2023-04-19T04:14:51;99019.72;;;8.34;90.46
75247;BME280;63844;50.042;19.224;2023-04-19T04:17:17;99021.09;;;8.32;90.75
75247;BME280;63844;50.042;19.224;2023-04-19T04:19:43;99020.20;;;8.35;90.61
75247;BME280;63844;50.042;19.224;2023-04-19T04:22:10;99019.89;;;8.34;90.63
75247;BME280;63844;50.042;19.224;2023-04-19T04:24:38;99021.35;;;8.34;90.78
75247;BME280;63844;50.042;19.224;2023-04-19T04:27:06;99018.42;;;8.36;90.52
75247;BME280;63844;50.042;19.224;2023-04-19T04:29:38;99019.89;;;8.42;89.96
75247;BME280;63844;50.042;19.224;2023-04-19T04:32:07;99019.82;;;8.46;89.97
75247;BME280;63844;50.042;19.224;2023-04-19T04:34:34;99019.16;;;8.48;90.30
75247;BME280;63844;50.042;19.224;2023-04-19T04:37:02;99015.70;;;8.53;89.54
75247;BME280;63844;50.042;19.224;2023-04-19T04:39:29;99012.80;;;8.57;89.80
75247;BME280;63844;50.042;19.224;2023-04-19T04:41:55;99015.91;;;8.59;90.20
75247;BME280;63844;50.042;19.224;2023-04-19T04:44:24;99015.39;;;8.55;89.92
75247;BME280;63844;50.042;19.224;2023-04-19T04:46:51;99013.63;;;8.52;89.60
75247;BME280;63844;50.042;19.224;2023-04-19T04:49:17;99006.80;;;8.54;89.69
75247;BME280;63844;50.042;19.224;2023-04-19T04:51:44;99000.80;;;8.54;89.77
75247;BME280;63844;50.042;19.224;2023-04-19T04:54:10;98998.58;;;8.59;89.15
75247;BME280;63844;50.042;19.224;2023-04-19T04:56:36;98996.13;;;8.62;89.26
75247;BME280;63844;50.042;19.224;2023-04-19T04:59:03;98993.55;;;8.64;88.93
75247;BME280;63844;50.042;19.224;2023-04-19T05:01:29;98993.13;;;8.65;89.22
75247;BME280;63844;50.042;19.224;2023-04-19T05:03:56;98990.81;;;8.65;89.41
75247;BME280;63844;50.042;19.224;2023-04-19T05:06:22;98996.13;;;8.68;89.55
75247;BME280;63844;50.042;19.224;2023-04-19T05:08:48;98994.52;;;8.71;88.40
75247;BME280;63844;50.042;19.224;2023-04-19T05:11:15;98993.08;;;8.72;88.46
75247;BME280;63844;50.042;19.224;2023-04-19T05:13:42;98989.16;;;8.72;89.12
75247;BME280;63844;50.042;19.224;2023-04-19T05:16:09;98985.86;;;8.71;89.20
75247;BME280;63844;50.042;19.224;2023-04-19T05:18:35;98985.94;;;8.73;88.52
75247;BME280;63844;50.042;19.224;2023-04-19T05:21:02;98990.10;;;8.71;88.58
75247;BME280;63844;50.042;19.224;2023-04-19T05:23:28;98983.51;;;8.72;88.84
75247;BME280;63844;50.042;19.224;2023-04-19T05:25:54;98983.07;;;8.77;88.14
75247;BME280;63844;50.042;19.224;2023-04-19T05:28:21;98982.54;;;8.81;88.59
75247;BME280;63844;50.042;19.224;2023-04-19T05:30:47;98985.23;;;8.83;88.63
75247;BME280;63844;50.042;19.224;2023-04-19T05:33:14;98981.66;;;8.80;88.90
75247;BME280;63844;50.042;19.224;2023-04-19T05:35:40;98985.60;;;8.85;88.15
75247;BME280;63844;50.042;19.224;2023-04-19T05:38:06;98992.19;;;8.90;87.98
75247;BME280;63844;50.042;19.224;2023-04-19T05:40:33;98996.58;;;8.93;87.63
75247;BME280;63844;50.042;19.224;2023-04-19T05:43:00;98997.93;;;8.85;87.70
75247;BME280;63844;50.042;19.224;2023-04-19T05:45:27;98996.71;;;8.85;88.09
75247;BME280;63844;50.042;19.224;2023-04-19T05:47:53;98997.45;;;8.82;88.15
75247;BME280;63844;50.042;19.224;2023-04-19T05:50:20;99000.23;;;8.83;88.50
75247;BME280;63844;50.042;19.224;2023-04-19T05:52:46;99000.09;;;8.88;88.37
75247;BME280;63844;50.042;19.224;2023-04-19T05:55:13;98999.16;;;8.88;87.53
75247;BME280;63844;50.042;19.224;2023-04-19T05:57:39;98995.77;;;8.92;87.42
75247;BME280;63844;50.042;19.224;2023-04-19T06:00:06;98994.71;;;8.98;87.37
75247;BME280;63844;50.042;19.224;2023-04-19T06:02:35;98997.08;;;9.03;87.04
75247;BME280;63844;50.042;19.224;2023-04-19T06:05:01;98993.20;;;9.03;86.72
75247;BME280;63844;50.042;19.224;2023-04-19T06:07:31;98997.41;;;9.09;86.67
75247;BME280;63844;50.042;19.224;2023-04-19T06:09:58;98996.45;;;9.19;86.75
75247;BME280;63844;50.042;19.224;2023-04-19T06:12:24;98993.92;;;9.29;86.54
75247;BME280;63844;50.042;19.224;2023-04-19T06:14:51;98993.64;;;9.36;86.16
75247;BME280;63844;50.042;19.224;2023-04-19T06:17:17;98995.73;;;9.40;85.86
75247;BME280;63844;50.042;19.224;2023-04-19T06:19:50;98996.58;;;9.37;84.82
75247;BME280;63844;50.042;19.224;2023-04-19T06:22:17;98996.94;;;9.32;84.52
75247;BME280;63844;50.042;19.224;2023-04-19T06:24:44;98997.30;;;9.34;84.28
75247;BME280;63844;50.042;19.224;2023-04-19T06:27:11;98995.73;;;9.34;83.83
75247;BME280;63844;50.042;19.224;2023-04-19T06:29:38;98994.84;;;9.31;84.46
75247;BME280;63844;50.042;19.224;2023-04-19T06:32:04;98993.08;;;9.34;84.88
75247;BME280;63844;50.042;19.224;2023-04-19T06:34:30;98991.95;;;9.26;84.62
75247;BME280;63844;50.042;19.224;2023-04-19T06:36:57;98993.31;;;9.15;84.69
75247;BME280;63844;50.042;19.224;2023-04-19T06:39:23;98992.41;;;9.16;85.00
75247;BME280;63844;50.042;19.224;2023-04-19T06:41:50;98994.13;;;9.11;85.12
75247;BME280;63844;50.042;19.224;2023-04-19T06:44:16;98996.09;;;9.05;85.13
75247;BME280;63844;50.042;19.224;2023-04-19T06:46:43;98996.02;;;9.00;85.21
75247;BME280;63844;50.042;19.224;2023-04-19T06:49:09;98997.67;;;8.93;85.64
75247;BME280;63844;50.042;19.224;2023-04-19T06:51:38;98993.98;;;8.90;84.84
75247;BME280;63844;50.042;19.224;2023-04-19T06:54:04;98993.76;;;8.91;84.97
75247;BME280;63844;50.042;19.224;2023-04-19T06:56:44;98996.61;;;8.90;84.47
75247;BME280;63844;50.042;19.224;2023-04-19T06:59:12;98997.01;;;8.83;85.00
75247;BME280;63844;50.042;19.224;2023-04-19T07:01:39;98997.55;;;8.83;84.36
75247;BME280;63844;50.042;19.224;2023-04-19T07:04:06;99001.98;;;8.83;84.17
75247;BME280;63844;50.042;19.224;2023-04-19T07:06:34;99008.61;;;8.90;83.84
75247;BME280;63844;50.042;19.224;2023-04-19T07:09:02;99011.58;;;8.88;83.06
75247;BME280;63844;50.042;19.224;2023-04-19T07:11:29;99012.72;;;8.83;82.94
75247;BME280;63844;50.042;19.224;2023-04-19T07:13:56;99015.16;;;8.87;83.17
75247;BME280;63844;50.042;19.224;2023-04-19T07:16:23;99014.24;;;8.93;82.90
75247;BME280;63844;50.042;19.224;2023-04-19T07:18:49;99013.64;;;9.00;83.05
75247;BME280;63844;50.042;19.224;2023-04-19T07:21:15;99017.27;;;8.96;81.85
75247;BME280;63844;50.042;19.224;2023-04-19T07:23:42;99017.92;;;8.94;82.15
75247;BME280;63844;50.042;19.224;2023-04-19T07:26:08;99017.52;;;9.00;81.66
75247;BME280;63844;50.042;19.224;2023-04-19T07:28:35;99022.47;;;8.94;81.03
75247;BME280;63844;50.042;19.224;2023-04-19T07:31:01;99024.02;;;8.92;80.10
75247;BME280;63844;50.042;19.224;2023-04-19T07:33:28;99020.42;;;8.87;79.70
75247;BME280;63844;50.042;19.224;2023-04-19T07:35:54;99020.42;;;8.81;79.66
75247;BME280;63844;50.042;19.224;2023-04-19T07:38:22;99021.83;;;8.84;80.09
75247;BME280;63844;50.042;19.224;2023-04-19T07:40:48;99022.21;;;8.84;79.94
75247;BME280;63844;50.042;19.224;2023-04-19T07:43:15;99021.21;;;8.77;79.45
75247;BME280;63844;50.042;19.224;2023-04-19T07:45:41;99023.95;;;8.69;79.66
75247;BME280;63844;50.042;19.224;2023-04-19T07:48:08;99025.02;;;8.69;80.02
75247;BME280;63844;50.042;19.224;2023-04-19T07:50:35;99025.12;;;8.73;80.25
75247;BME280;63844;50.042;19.224;2023-04-19T07:53:02;99019.92;;;8.77;79.51
75247;BME280;63844;50.042;19.224;2023-04-19T07:55:28;99018.37;;;8.92;79.36
75247;BME280;63844;50.042;19.224;2023-04-19T07:57:55;99021.38;;;8.95;78.59
75247;BME280;63844;50.042;19.224;2023-04-19T08:00:21;99020.86;;;8.86;77.74
75247;BME280;63844;50.042;19.224;2023-04-19T08:02:48;99015.77;;;9.00;78.62
75247;BME280;63844;50.042;19.224;2023-04-19T08:05:15;99017.80;;;9.11;78.62
75247;BME280;63844;50.042;19.224;2023-04-19T08:07:43;99016.52;;;9.14;77.95
75247;BME280;63844;50.042;19.224;2023-04-19T08:10:10;99017.27;;;9.02;78.12
75247;BME280;63844;50.042;19.224;2023-04-19T08:12:37;99022.64;;;8.89;77.59
75247;BME280;63844;50.042;19.224;2023-04-19T08:15:06;99026.59;;;8.63;77.49
75247;BME280;63844;50.042;19.224;2023-04-19T08:17:33;99025.48;;;8.55;77.65
75247;BME280;63844;50.042;19.224;2023-04-19T08:20:00;99022.98;;;8.46;77.20
75247;BME280;63844;50.042;19.224;2023-04-19T08:22:26;99024.61;;;8.58;77.62
75247;BME280;63844;50.042;19.224;2023-04-19T08:24:53;99028.35;;;8.63;77.20
75247;BME280;63844;50.042;19.224;2023-04-19T08:27:20;99025.65;;;8.67;76.49
75247;BME280;63844;50.042;19.224;2023-04-19T08:29:46;99026.02;;;8.73;77.26
75247;BME280;63844;50.042;19.224;2023-04-19T08:32:13;99027.82;;;8.72;76.69
75247;BME280;63844;50.042;19.224;2023-04-19T08:34:39;99031.13;;;8.80;76.93
75247;BME280;63844;50.042;19.224;2023-04-19T08:37:06;99026.75;;;8.78;76.53
75247;BME280;63844;50.042;19.224;2023-04-19T08:39:33;99028.20;;;8.78;76.12
75247;BME280;63844;50.042;19.224;2023-04-19T08:42:05;99026.37;;;8.76;76.33
75247;BME280;63844;50.042;19.224;2023-04-19T08:44:32;99027.52;;;8.68;75.23
75247;BME280;63844;50.042;19.224;2023-04-19T08:46:59;99032.29;;;8.59;74.63
75247;BME280;63844;50.042;19.224;2023-04-19T08:49:30;99028.14;;;8.57;74.71
75247;BME280;63844;50.042;19.224;2023-04-19T08:51:57;99030.69;;;8.56;74.86
75247;BME280;63844;50.042;19.224;2023-04-19T08:54:24;99030.97;;;8.60;75.68
75247;BME280;63844;50.042;19.224;2023-04-19T08:56:52;99025.58;;;8.68;75.47
75247;BME280;63844;50.042;19.224;2023-04-19T08:59:18;99025.61;;;8.74;75.10
75247;BME280;63844;50.042;19.224;2023-04-19T09:01:45;99028.68;;;8.61;74.40
75247;BME280;63844;50.042;19.224;2023-04-19T09:04:11;99029.16;;;8.64;75.41
75247;BME280;63844;50.042;19.224;2023-04-19T09:06:39;99027.52;;;8.68;75.26
75247;BME280;63844;50.042;19.224;2023-04-19T09:09:18;99025.82;;;8.73;76.57
75247;BME280;63844;50.042;19.224;2023-04-19T09:11:45;99021.70;;;8.84;76.52
75247;BME280;63844;50.042;19.224;2023-04-19T09:14:15;99020.75;;;8.88;75.09
75247;BME280;63844;50.042;19.224;2023-04-19T09:16:43;99024.55;;;8.89;75.19
75247;BME280;63844;50.042;19.224;2023-04-19T09:19:10;99026.73;;;8.91;74.91
75247;BME280;63844;50.042;19.224;2023-04-19T09:21:38;99029.24;;;8.93;74.72
75247;BME280;63844;50.042;19.224;2023-04-19T09:24:05;99021.36;;;8.92;74.53
75247;BME280;63844;50.042;19.224;2023-04-19T09:26:32;99016.48;;;8.97;75.53
75247;BME280;63844;50.042;19.224;2023-04-19T09:29:00;99015.46;;;9.17;76.53
75247;BME280;63844;50.042;19.224;2023-04-19T09:31:28;99017.36;;;9.15;74.87
75247;BME280;63844;50.042;19.224;2023-04-19T09:33:55;99015.32;;;9.02;74.77
75247;BME280;63844;50.042;19.224;2023-04-19T09:36:26;99019.86;;;9.14;75.46
75247;BME280;63844;50.042;19.224;2023-04-19T09:38:53;99018.48;;;9.23;74.91
75247;BME280;63844;50.042;19.224;2023-04-19T09:41:20;99018.79;;;9.33;74.22
75247;BME280;63844;50.042;19.224;2023-04-19T09:43:46;99015.98;;;9.44;73.81
75247;BME280;63844;50.042;19.224;2023-04-19T09:46:30;99018.14;;;9.46;73.18
75247;BME280;63844;50.042;19.224;2023-04-19T09:51:40;99021.80;;;9.55;73.55
75247;BME280;63844;50.042;19.224;2023-04-19T09:54:08;99023.27;;;9.60;73.52
75247;BME280;63844;50.042;19.224;2023-04-19T09:56:35;99023.77;;;9.78;73.66
75247;BME280;63844;50.042;19.224;2023-04-19T09:59:03;99019.79;;;9.88;72.57
75247;BME280;63844;50.042;19.224;2023-04-19T10:01:34;99020.70;;;9.79;72.41
75247;BME280;63844;50.042;19.224;2023-04-19T10:04:03;99021.09;;;9.79;72.20
75247;BME280;63844;50.042;19.224;2023-04-19T10:06:30;99021.80;;;9.78;72.80
75247;BME280;63844;50.042;19.224;2023-04-19T10:09:00;99026.40;;;9.78;72.37
75247;BME280;63844;50.042;19.224;2023-04-19T10:11:31;99020.45;;;9.77;71.72
75247;BME280;63844;50.042;19.224;2023-04-19T10:14:03;99019.15;;;9.84;72.14
75247;BME280;63844;50.042;19.224;2023-04-19T10:16:31;99018.56;;;10.02;72.47
75247;BME280;63844;50.042;19.224;2023-04-19T10:18:58;99015.67;;;10.28;72.15
75247;BME280;63844;50.042;19.224;2023-04-19T10:21:26;99015.55;;;10.41;71.12
75247;BME280;63844;50.042;19.224;2023-04-19T10:23:55;99011.01;;;10.54;71.27
75247;BME280;63844;50.042;19.224;2023-04-19T10:26:22;99009.27;;;10.61;70.62
75247;BME280;63844;50.042;19.224;2023-04-19T10:28:49;99006.73;;;10.59;70.14
75247;BME280;63844;50.042;19.224;2023-04-19T10:31:18;99007.23;;;10.57;70.34
75247;BME280;63844;50.042;19.224;2023-04-19T10:33:49;99008.46;;;10.49;70.87
75247;BME280;63844;50.042;19.224;2023-04-19T10:36:17;99006.80;;;10.50;70.94
75247;BME280;63844;50.042;19.224;2023-04-19T10:38:45;99004.65;;;10.42;71.05
75247;BME280;63844;50.042;19.224;2023-04-19T10:41:17;99007.27;;;10.46;71.27
75247;BME280;63844;50.042;19.224;2023-04-19T10:44:10;99005.70;;;10.37;70.27
75247;BME280;63844;50.042;19.224;2023-04-19T10:46:37;99005.55;;;10.28;71.13
75247;BME280;63844;50.042;19.224;2023-04-19T10:49:07;99011.48;;;10.30;71.90
75247;BME280;63844;50.042;19.224;2023-04-19T10:51:36;99011.11;;;10.36;71.41
75247;BME280;63844;50.042;19.224;2023-04-19T10:54:08;99009.41;;;10.40;71.24
75247;BME280;63844;50.042;19.224;2023-04-19T11:01:44;99014.15;;;10.40;71.32
75247;BME280;63844;50.042;19.224;2023-04-19T11:04:58;99018.11;;;10.42;70.85
75247;BME280;63844;50.042;19.224;2023-04-19T11:07:10;99012.98;;;10.37;70.53
75247;BME280;63844;50.042;19.224;2023-04-19T11:09:38;99016.67;;;10.34;70.79
75247;BME280;63844;50.042;19.224;2023-04-19T11:12:16;99017.46;;;10.28;70.51
75247;BME280;63844;50.042;19.224;2023-04-19T11:14:46;99017.89;;;10.26;71.37
75247;BME280;63844;50.042;19.224;2023-04-19T11:17:24;99018.34;;;10.14;69.66
75247;BME280;63844;50.042;19.224;2023-04-19T11:20:01;99019.19;;;10.11;70.44
75247;BME280;63844;50.042;19.224;2023-04-19T11:22:30;99019.64;;;10.13;70.60
75247;BME280;63844;50.042;19.224;2023-04-19T11:27:34;99018.56;;;10.30;70.46
75247;BME280;63844;50.042;19.224;2023-04-19T11:30:05;99017.53;;;10.27;70.91
75247;BME280;63844;50.042;19.224;2023-04-19T11:32:32;99019.13;;;10.23;70.87
75247;BME280;63844;50.042;19.224;2023-04-19T11:35:05;99015.73;;;10.21;70.86
75247;BME280;63844;50.042;19.224;2023-04-19T11:37:34;99020.73;;;10.21;71.18
75247;BME280;63844;50.042;19.224;2023-04-19T11:40:01;99019.17;;;10.17;71.38
75247;BME280;63844;50.042;19.224;2023-04-19T11:42:29;99018.26;;;10.12;71.30
75247;BME280;63844;50.042;19.224;2023-04-19T11:44:56;99020.07;;;10.06;71.39
75247;BME280;63844;50.042;19.224;2023-04-19T11:47:27;99019.09;;;9.88;71.86
75247;BME280;63844;50.042;19.224;2023-04-19T11:49:54;99014.65;;;9.88;72.05
75247;BME280;63844;50.042;19.224;2023-04-19T11:52:25;99018.23;;;9.87;72.42
75247;BME280;63844;50.042;19.224;2023-04-19T11:54:52;99013.04;;;9.80;72.50
75247;BME280;63844;50.042;19.224;2023-04-19T11:57:28;99013.38;;;9.75;72.89
75247;BME280;63844;50.042;19.224;2023-04-19T12:00:08;99017.77;;;9.70;72.88
75247;BME280;63844;50.042;19.224;2023-04-19T12:02:40;99017.05;;;9.63;73.46
75247;BME280;63844;50.042;19.224;2023-04-19T12:05:12;99015.41;;;9.56;73.81
75247;BME280;63844;50.042;19.224;2023-04-19T12:08:02;99022.58;;;9.51;74.15
75247;BME280;63844;50.042;19.224;2023-04-19T12:10:32;99026.48;;;9.28;74.59
75247;BME280;63844;50.042;19.224;2023-04-19T12:12:59;99025.95;;;9.10;74.40
75247;BME280;63844;50.042;19.224;2023-04-19T12:15:45;99029.77;;;8.91;75.50
75247;BME280;63844;50.042;19.224;2023-04-19T12:18:11;99029.45;;;8.81;76.20
75247;BME280;63844;50.042;19.224;2023-04-19T12:20:46;99028.91;;;8.81;75.75
75247;BME280;63844;50.042;19.224;2023-04-19T12:23:14;99033.45;;;8.75;76.30
75247;BME280;63844;50.042;19.224;2023-04-19T12:25:42;99037.27;;;8.80;75.53
75247;BME280;63844;50.042;19.224;2023-04-19T12:28:09;99039.89;;;8.77;75.93
75247;BME280;63844;50.042;19.224;2023-04-19T12:30:36;99038.38;;;8.69;76.12
75247;BME280;63844;50.042;19.224;2023-04-19T12:33:03;99043.34;;;8.57;77.30
75247;BME280;63844;50.042;19.224;2023-04-19T12:35:30;99045.09;;;8.45;77.68
75247;BME280;63844;50.042;19.224;2023-04-19T12:37:57;99048.30;;;8.41;78.51
75247;BME280;63844;50.042;19.224;2023-04-19T12:40:25;99048.08;;;8.35;78.19
75247;BME280;63844;50.042;19.224;2023-04-19T12:42:52;99049.13;;;8.32;77.98
75247;BME280;63844;50.042;19.224;2023-04-19T12:45:19;99047.54;;;8.28;78.48
75247;BME280;63844;50.042;19.224;2023-04-19T12:47:46;99048.52;;;8.27;78.45
75247;BME280;63844;50.042;19.224;2023-04-19T12:50:14;99048.51;;;8.18;78.37
75247;BME280;63844;50.042;19.224;2023-04-19T12:52:43;99049.24;;;8.14;78.93
75247;BME280;63844;50.042;19.224;2023-04-19T12:55:09;99054.23;;;8.03;79.75
75247;BME280;63844;50.042;19.224;2023-04-19T12:57:36;99053.05;;;8.05;79.66
75247;BME280;63844;50.042;19.224;2023-04-19T13:00:03;99051.80;;;7.96;79.74
75247;BME280;63844;50.042;19.224;2023-04-19T13:02:33;99051.17;;;7.88;80.11
75247;BME280;63844;50.042;19.224;2023-04-19T13:04:59;99050.55;;;7.90;80.56
75247;BME280;63844;50.042;19.224;2023-04-19T13:07:26;99050.86;;;7.91;80.23
75247;BME280;63844;50.042;19.224;2023-04-19T13:09:53;99051.59;;;7.94;80.62
75247;BME280;63844;50.042;19.224;2023-04-19T13:12:20;99049.63;;;7.94;80.55